sensor_id;sensor_type;location;lat;lon;timestamp;pressure;altitude;pressure_sealevel;temperature;humidity
19748;BME280;10032;51.386;12.516;2022-11-23T00:00:36;98882.03;;;3.52;100.00
19748;BME280;10032;51.386;12.516;2022-11-23T00:03:01;98877.72;;;3.51;100.00
19748;BME280;10032;51.386;12.516;2022-11-23T00:05:27;98876.44;;;3.53;100.00
19748;BME280;10032;51.386;12.516;2022-11-23T00:07:53;98886.09;;;3.54;100.00
19748;BME280;10032;51.386;12.516;2022-11-23T00:10:19;98885.16;;;3.60;100.00
19748;BME280;10032;51.386;12.516;2022-11-23T00:12:45;98885.75;;;3.62;100.00
19748;BME280;10032;51.386;12.516;2022-11-23T00:15:12;98884.69;;;3.63;100.00
19748;BME280;10032;51.386;12.516;2022-11-23T00:17:38;98886.31;;;3.64;100.00
19748;BME280;10032;51.386;12.516;2022-11-23T00:20:05;98887.94;;;3.65;100.00
19748;BME280;10032;51.386;12.516;2022-11-23T00:22:31;98884.78;;;3.68;100.00
19748;BME280;10032;51.386;12.516;2022-11-23T00:24:57;98886.97;;;3.71;100.00
19748;BME280;10032;51.386;12.516;2022-11-23T00:27:22;98880.81;;;3.71;100.00
19748;BME280;10032;51.386;12.516;2022-11-23T00:29:47;98875.47;;;3.71;100.00
19748;BME280;10032;51.386;12.516;2022-11-23T00:32:13;98884.91;;;3.73;100.00
19748;BME280;10032;51.386;12.516;2022-11-23T00:34:38;98877.91;;;3.72;100.00
19748;BME280;10032;51.386;12.516;2022-11-23T00:37:04;98877.66;;;3.74;100.00
19748;BME280;10032;51.386;12.516;2022-11-23T00:39:29;98885.47;;;3.75;100.00
19748;BME280;10032;51.386;12.516;2022-11-23T00:41:54;98885.47;;;3.75;100.00
19748;BME280;10032;51.386;12.516;2022-11-23T00:44:20;98887.09;;;3.76;100.00
19748;BME280;10032;51.386;12.516;2022-11-23T00:46:45;98877.44;;;3.75;100.00
19748;BME280;10032;51.386;12.516;2022-11-23T00:49:11;98885.22;;;3.77;100.00
19748;BME280;10032;51.386;12.516;2022-11-23T00:51:36;98889.19;;;3.74;100.00
19748;BME280;10032;51.386;12.516;2022-11-23T00:54:03;98895.38;;;3.75;100.00
19748;BME280;10032;51.386;12.516;2022-11-23T00:56:30;98897.22;;;3.74;100.00
19748;BME280;10032;51.386;12.516;2022-11-23T00:58:57;98900.47;;;3.76;100.00
19748;BME280;10032;51.386;12.516;2022-11-23T01:01:25;98905.59;;;3.78;100.00
19748;BME280;10032;51.386;12.516;2022-11-23T01:03:57;98907.81;;;3.81;100.00
19748;BME280;10032;51.386;12.516;2022-11-23T01:06:29;98899.88;;;3.86;100.00
19748;BME280;10032;51.386;12.516;2022-11-23T01:08:56;98902.31;;;3.87;100.00
19748;BME280;10032;51.386;12.516;2022-11-23T01:11:25;98899.72;;;3.92;100.00
19748;BME280;10032;51.386;12.516;2022-11-23T01:13:51;98901.94;;;3.95;100.00
19748;BME280;10032;51.386;12.516;2022-11-23T01:16:26;98900.16;;;4.01;100.00
19748;BME280;10032;51.386;12.516;2022-11-23T01:18:55;98897.84;;;4.04;100.00
19748;BME280;10032;51.386;12.516;2022-11-23T01:21:22;98889.53;;;4.06;100.00
19748;BME280;10032;51.386;12.516;2022-11-23T01:23:48;98898.97;;;4.08;100.00
19748;BME280;10032;51.386;12.516;2022-11-23T01:26:13;98892.31;;;4.11;100.00
19748;BME280;10032;51.386;12.516;2022-11-23T01:28:39;98896.41;;;4.13;100.00
19748;BME280;10032;51.386;12.516;2022-11-23T01:31:08;98899.66;;;4.15;100.00
19748;BME280;10032;51.386;12.516;2022-11-23T01:33:34;98894.63;;;4.19;100.00
19748;BME280;10032;51.386;12.516;2022-11-23T01:36:00;98885.06;;;4.23;100.00
19748;BME280;10032;51.386;12.516;2022-11-23T01:38:32;98893.13;;;4.23;100.00
19748;BME280;10032;51.386;12.516;2022-11-23T01:40:57;98886.94;;;4.22;100.00
19748;BME280;10032;51.386;12.516;2022-11-23T01:43:23;98895.53;;;4.24;100.00
19748;BME280;10032;51.386;12.516;2022-11-23T01:48:33;98895.63;;;4.29;100.00
19748;BME280;10032;51.386;12.516;2022-11-23T01:51:04;98909.13;;;4.34;100.00
19748;BME280;10032;51.386;12.516;2022-11-23T01:53:31;98903.31;;;4.37;100.00
19748;BME280;10032;51.386;12.516;2022-11-23T01:56:00;98907.03;;;4.36;100.00
19748;BME280;10032;51.386;12.516;2022-11-23T01:58:28;98914.69;;;4.44;100.00
19748;BME280;10032;51.386;12.516;2022-11-23T02:00:55;98918.97;;;4.45;100.00
19748;BME280;10032;51.386;12.516;2022-11-23T02:03:21;98918.97;;;4.45;100.00
19748;BME280;10032;51.386;12.516;2022-11-23T02:05:49;98914.31;;;4.52;100.00
19748;BME280;10032;51.386;12.516;2022-11-23T02:08:19;98915.09;;;4.53;100.00
19748;BME280;10032;51.386;12.516;2022-11-23T02:10:45;98910.31;;;4.55;100.00
19748;BME280;10032;51.386;12.516;2022-11-23T02:13:12;98910.06;;;4.56;100.00
19748;BME280;10032;51.386;12.516;2022-11-23T02:15:38;98907.97;;;4.58;100.00
19748;BME280;10032;51.386;12.516;2022-11-23T02:18:12;98912.03;;;4.61;100.00
19748;BME280;10032;51.386;12.516;2022-11-23T02:20:39;98909.13;;;4.62;100.00
19748;BME280;10032;51.386;12.516;2022-11-23T02:26:16;98914.06;;;4.70;100.00
19748;BME280;10032;51.386;12.516;2022-11-23T02:28:49;98910.66;;;4.75;100.00
19748;BME280;10032;51.386;12.516;2022-11-23T02:31:17;98904.00;;;4.77;100.00
19748;BME280;10032;51.386;12.516;2022-11-23T02:33:42;98905.13;;;4.81;100.00
19748;BME280;10032;51.386;12.516;2022-11-23T02:36:50;98907.13;;;4.86;100.00
19748;BME280;10032;51.386;12.516;2022-11-23T02:39:23;98903.69;;;4.90;100.00
19748;BME280;10032;51.386;12.516;2022-11-23T02:41:52;98897.03;;;4.93;100.00
19748;BME280;10032;51.386;12.516;2022-11-23T02:47:03;98902.47;;;4.98;100.00
19748;BME280;10032;51.386;12.516;2022-11-23T02:49:28;98900.03;;;4.96;100.00
19748;BME280;10032;51.386;12.516;2022-11-23T02:51:54;98905.38;;;4.96;100.00
19748;BME280;10032;51.386;12.516;2022-11-23T02:54:20;98902.72;;;4.96;100.00
19748;BME280;10032;51.386;12.516;2022-11-23T02:56:45;98912.38;;;4.97;100.00
19748;BME280;10032;51.386;12.516;2022-11-23T02:59:10;98913.75;;;5.00;100.00
19748;BME280;10032;51.386;12.516;2022-11-23T03:01:36;98919.94;;;5.00;100.00
19748;BME280;10032;51.386;12.516;2022-11-23T03:04:04;98914.59;;;5.00;100.00
19748;BME280;10032;51.386;12.516;2022-11-23T03:06:29;98916.44;;;5.00;100.00
19748;BME280;10032;51.386;12.516;2022-11-23T03:08:54;98925.41;;;5.05;100.00
19748;BME280;10032;51.386;12.516;2022-11-23T03:11:20;98930.53;;;5.07;100.00
19748;BME280;10032;51.386;12.516;2022-11-23T03:13:45;98925.50;;;5.10;100.00
19748;BME280;10032;51.386;12.516;2022-11-23T03:16:11;98935.41;;;5.10;100.00
19748;BME280;10032;51.386;12.516;2022-11-23T03:18:36;98929.78;;;5.11;100.00
19748;BME280;10032;51.386;12.516;2022-11-23T03:21:03;98927.94;;;5.12;100.00
19748;BME280;10032;51.386;12.516;2022-11-23T03:23:29;98923.34;;;5.12;100.00
19748;BME280;10032;51.386;12.516;2022-11-23T03:25:58;98923.88;;;5.09;100.00
19748;BME280;10032;51.386;12.516;2022-11-23T03:28:24;98924.66;;;5.10;100.00
19748;BME280;10032;51.386;12.516;2022-11-23T03:30:49;98930.84;;;5.10;100.00
19748;BME280;10032;51.386;12.516;2022-11-23T03:33:15;98931.97;;;5.14;100.00
19748;BME280;10032;51.386;12.516;2022-11-23T03:35:41;98940.53;;;5.11;100.00
19748;BME280;10032;51.386;12.516;2022-11-23T03:38:06;98937.94;;;5.16;100.00
19748;BME280;10032;51.386;12.516;2022-11-23T03:40:32;98937.19;;;5.21;100.00
19748;BME280;10032;51.386;12.516;2022-11-23T03:42:57;98933.19;;;5.23;100.00
19748;BME280;10032;51.386;12.516;2022-11-23T03:45:23;98930.50;;;5.23;100.00
19748;BME280;10032;51.386;12.516;2022-11-23T03:47:48;98931.66;;;5.27;100.00
19748;BME280;10032;51.386;12.516;2022-11-23T03:50:14;98938.66;;;5.28;100.00
19748;BME280;10032;51.386;12.516;2022-11-23T03:52:39;98934.91;;;5.29;100.00
19748;BME280;10032;51.386;12.516;2022-11-23T03:55:05;98941.91;;;5.30;100.00
19748;BME280;10032;51.386;12.516;2022-11-23T03:57:30;98938.97;;;5.32;100.00
19748;BME280;10032;51.386;12.516;2022-11-23T03:59:56;98936.59;;;5.35;100.00
19748;BME280;10032;51.386;12.516;2022-11-23T04:02:21;98936.34;;;5.37;100.00
19748;BME280;10032;51.386;12.516;2022-11-23T04:04:47;98934.50;;;5.37;100.00
19748;BME280;10032;51.386;12.516;2022-11-23T04:07:12;98941.72;;;5.37;100.00
19748;BME280;10032;51.386;12.516;2022-11-23T04:09:37;98940.94;;;5.36;100.00
19748;BME280;10032;51.386;12.516;2022-11-23T04:12:03;98943.84;;;5.35;100.00
19748;BME280;10032;51.386;12.516;2022-11-23T04:14:29;98944.16;;;5.38;100.00
19748;BME280;10032;51.386;12.516;2022-11-23T04:16:54;98945.78;;;5.39;100.00
19748;BME280;10032;51.386;12.516;2022-11-23T04:19:20;98945.56;;;5.41;100.00
19748;BME280;10032;51.386;12.516;2022-11-23T04:21:45;98940.75;;;5.43;100.00
19748;BME280;10032;51.386;12.516;2022-11-23T04:24:11;98949.63;;;5.43;100.00
19748;BME280;10032;51.386;12.516;2022-11-23T04:26:36;98942.03;;;5.40;100.00
19748;BME280;10032;51.386;12.516;2022-11-23T04:29:02;98940.41;;;5.39;100.00
19748;BME280;10032;51.386;12.516;2022-11-23T04:31:27;98946.84;;;5.38;100.00
19748;BME280;10032;51.386;12.516;2022-11-23T04:33:54;98940.09;;;5.36;100.00
19748;BME280;10032;51.386;12.516;2022-11-23T04:36:20;98937.66;;;5.34;100.00
19748;BME280;10032;51.386;12.516;2022-11-23T04:38:45;98940.53;;;5.28;100.00
19748;BME280;10032;51.386;12.516;2022-11-23T04:41:11;98945.56;;;5.24;100.00
19748;BME280;10032;51.386;12.516;2022-11-23T04:43:36;98936.94;;;5.22;100.00
19748;BME280;10032;51.386;12.516;2022-11-23T04:46:02;98934.72;;;5.19;100.00
19748;BME280;10032;51.386;12.516;2022-11-23T04:48:27;98932.78;;;5.15;100.00
19748;BME280;10032;51.386;12.516;2022-11-23T04:50:53;98939.69;;;5.11;100.00
19748;BME280;10032;51.386;12.516;2022-11-23T04:53:18;98931.91;;;5.09;100.00
19748;BME280;10032;51.386;12.516;2022-11-23T04:55:45;98930.44;;;5.02;100.00
19748;BME280;10032;51.386;12.516;2022-11-23T04:58:11;98934.44;;;4.99;100.00
19748;BME280;10032;51.386;12.516;2022-11-23T05:00:36;98929.53;;;4.96;100.00
19748;BME280;10032;51.386;12.516;2022-11-23T05:03:02;98932.97;;;4.92;100.00
19748;BME280;10032;51.386;12.516;2022-11-23T05:05:27;98935.06;;;4.90;100.00
19748;BME280;10032;51.386;12.516;2022-11-23T05:07:53;98934.75;;;4.86;100.00
19748;BME280;10032;51.386;12.516;2022-11-23T05:10:19;98933.94;;;4.86;100.00
19748;BME280;10032;51.386;12.516;2022-11-23T05:12:44;98935.72;;;4.80;100.00
19748;BME280;10032;51.386;12.516;2022-11-23T05:15:11;98933.44;;;4.72;100.00
19748;BME280;10032;51.386;12.516;2022-11-23T05:17:38;98930.66;;;4.67;100.00
19748;BME280;10032;51.386;12.516;2022-11-23T05:20:04;98933.50;;;4.61;100.00
19748;BME280;10032;51.386;12.516;2022-11-23T05:22:29;98937.13;;;4.55;100.00
19748;BME280;10032;51.386;12.516;2022-11-23T05:24:55;98933.06;;;4.52;100.00
19748;BME280;10032;51.386;12.516;2022-11-23T05:27:20;98930.31;;;4.47;100.00
19748;BME280;10032;51.386;12.516;2022-11-23T05:29:46;98929.13;;;4.43;100.00
19748;BME280;10032;51.386;12.516;2022-11-23T05:32:11;98936.63;;;4.41;100.00
19748;BME280;10032;51.386;12.516;2022-11-23T05:34:36;98932.22;;;4.35;100.00
19748;BME280;10032;51.386;12.516;2022-11-23T05:37:02;98930.47;;;4.29;100.00
19748;BME280;10032;51.386;12.516;2022-11-23T05:39:27;98924.69;;;4.21;100.00
19748;BME280;10032;51.386;12.516;2022-11-23T05:41:53;98928.09;;;4.16;100.00
19748;BME280;10032;51.386;12.516;2022-11-23T05:44:18;98931.13;;;4.08;100.00
19748;BME280;10032;51.386;12.516;2022-11-23T05:46:44;98925.44;;;4.05;100.00
19748;BME280;10032;51.386;12.516;2022-11-23T05:49:09;98929.63;;;4.01;100.00
19748;BME280;10032;51.386;12.516;2022-11-23T05:51:35;98929.41;;;4.02;100.00
19748;BME280;10032;51.386;12.516;2022-11-23T05:54:00;98928.13;;;4.05;100.00
19748;BME280;10032;51.386;12.516;2022-11-23T05:56:26;98924.03;;;4.02;100.00
19748;BME280;10032;51.386;12.516;2022-11-23T05:58:54;98924.53;;;3.99;100.00
19748;BME280;10032;51.386;12.516;2022-11-23T06:01:20;98938.97;;;3.98;100.00
19748;BME280;10032;51.386;12.516;2022-11-23T06:03:46;98931.97;;;3.97;100.00
19748;BME280;10032;51.386;12.516;2022-11-23T06:06:13;98928.19;;;3.93;100.00
19748;BME280;10032;51.386;12.516;2022-11-23T06:08:38;98937.72;;;3.89;100.00
19748;BME280;10032;51.386;12.516;2022-11-23T06:11:04;98933.88;;;3.85;100.00
19748;BME280;10032;51.386;12.516;2022-11-23T06:13:30;98934.94;;;3.84;100.00
19748;BME280;10032;51.386;12.516;2022-11-23T06:15:56;98938.06;;;3.81;100.00
19748;BME280;10032;51.386;12.516;2022-11-23T06:18:21;98943.09;;;3.78;100.00
19748;BME280;10032;51.386;12.516;2022-11-23T06:20:46;98937.75;;;3.78;100.00
19748;BME280;10032;51.386;12.516;2022-11-23T06:23:12;98936.34;;;3.75;100.00
19748;BME280;10032;51.386;12.516;2022-11-23T06:25:37;98940.06;;;3.74;100.00
19748;BME280;10032;51.386;12.516;2022-11-23T06:28:04;98943.31;;;3.76;100.00
19748;BME280;10032;51.386;12.516;2022-11-23T06:30:30;98949.84;;;3.80;100.00
19748;BME280;10032;51.386;12.516;2022-11-23T06:32:56;98945.78;;;3.78;100.00
19748;BME280;10032;51.386;12.516;2022-11-23T06:35:22;98955.59;;;3.72;100.00
19748;BME280;10032;51.386;12.516;2022-11-23T06:37:49;98957.66;;;3.70;100.00
19748;BME280;10032;51.386;12.516;2022-11-23T06:40:15;98953.59;;;3.68;100.00
19748;BME280;10032;51.386;12.516;2022-11-23T06:42:40;98958.94;;;3.68;100.00
19748;BME280;10032;51.386;12.516;2022-11-23T06:45:07;98956.50;;;3.66;100.00
19748;BME280;10032;51.386;12.516;2022-11-23T06:47:33;98965.34;;;3.67;100.00
19748;BME280;10032;51.386;12.516;2022-11-23T06:49:58;98967.19;;;3.66;100.00
19748;BME280;10032;51.386;12.516;2022-11-23T06:52:24;98966.97;;;3.68;100.00
19748;BME280;10032;51.386;12.516;2022-11-23T06:54:49;98976.28;;;3.65;100.00
19748;BME280;10032;51.386;12.516;2022-11-23T06:57:15;98967.47;;;3.65;100.00
19748;BME280;10032;51.386;12.516;2022-11-23T06:59:40;98971.53;;;3.67;100.00
19748;BME280;10032;51.386;12.516;2022-11-23T07:02:06;98970.00;;;3.71;100.00
19748;BME280;10032;51.386;12.516;2022-11-23T07:04:31;98968.97;;;3.72;100.00
19748;BME280;10032;51.386;12.516;2022-11-23T07:06:57;98968.47;;;3.75;100.00
19748;BME280;10032;51.386;12.516;2022-11-23T07:09:22;98976.84;;;3.79;100.00
19748;BME280;10032;51.386;12.516;2022-11-23T07:11:50;98971.59;;;3.84;100.00
19748;BME280;10032;51.386;12.516;2022-11-23T07:14:15;98967.88;;;3.85;100.00
19748;BME280;10032;51.386;12.516;2022-11-23T07:16:40;98975.69;;;3.86;100.00
19748;BME280;10032;51.386;12.516;2022-11-23T07:19:07;98974.50;;;3.82;100.00
19748;BME280;10032;51.386;12.516;2022-11-23T07:21:32;98983.16;;;3.84;100.00
19748;BME280;10032;51.386;12.516;2022-11-23T07:23:58;98982.44;;;3.89;100.00
19748;BME280;10032;51.386;12.516;2022-11-23T07:26:23;98984.44;;;3.93;100.00
19748;BME280;10032;51.386;12.516;2022-11-23T07:28:49;98979.16;;;3.98;100.00
19748;BME280;10032;51.386;12.516;2022-11-23T07:31:14;98991.03;;;4.02;100.00
19748;BME280;10032;51.386;12.516;2022-11-23T07:33:44;98984.38;;;4.05;100.00
19748;BME280;10032;51.386;12.516;2022-11-23T07:36:09;98982.03;;;4.08;100.00
19748;BME280;10032;51.386;12.516;2022-11-23T07:38:35;98985.31;;;4.10;100.00
19748;BME280;10032;51.386;12.516;2022-11-23T07:41:00;98990.19;;;4.13;100.00
19748;BME280;10032;51.386;12.516;2022-11-23T07:43:27;98990.78;;;4.15;100.00
19748;BME280;10032;51.386;12.516;2022-11-23T07:45:56;98992.41;;;4.16;100.00
19748;BME280;10032;51.386;12.516;2022-11-23T07:48:22;98996.94;;;4.16;100.00
19748;BME280;10032;51.386;12.516;2022-11-23T07:50:47;98994.03;;;4.17;100.00
19748;BME280;10032;51.386;12.516;2022-11-23T07:53:13;98999.97;;;4.19;100.00
19748;BME280;10032;51.386;12.516;2022-11-23T07:55:38;98998.94;;;4.20;100.00
19748;BME280;10032;51.386;12.516;2022-11-23T07:58:03;99002.19;;;4.22;100.00
19748;BME280;10032;51.386;12.516;2022-11-23T08:00:30;98999.59;;;4.27;100.00
19748;BME280;10032;51.386;12.516;2022-11-23T08:02:57;98998.09;;;4.31;100.00
19748;BME280;10032;51.386;12.516;2022-11-23T08:05:23;99003.53;;;4.36;100.00
19748;BME280;10032;51.386;12.516;2022-11-23T08:07:48;99008.28;;;4.46;100.00
19748;BME280;10032;51.386;12.516;2022-11-23T08:10:14;99008.16;;;4.52;100.00
19748;BME280;10032;51.386;12.516;2022-11-23T08:12:39;99010.22;;;4.62;100.00
19748;BME280;10032;51.386;12.516;2022-11-23T08:15:05;98998.06;;;4.71;100.00
19748;BME280;10032;51.386;12.516;2022-11-23T08:17:32;98997.09;;;4.77;100.00
19748;BME280;10032;51.386;12.516;2022-11-23T08:19:58;98996.34;;;4.81;100.00
19748;BME280;10032;51.386;12.516;2022-11-23T08:22:23;98994.59;;;4.87;100.00
19748;BME280;10032;51.386;12.516;2022-11-23T08:24:48;98993.28;;;4.89;100.00
19748;BME280;10032;51.386;12.516;2022-11-23T08:27:14;98999.78;;;4.93;100.00
19748;BME280;10032;51.386;12.516;2022-11-23T08:29:40;99001.16;;;4.96;100.00
19748;BME280;10032;51.386;12.516;2022-11-23T08:32:05;99000.94;;;4.97;100.00
19748;BME280;10032;51.386;12.516;2022-11-23T08:34:30;99002.31;;;5.00;100.00
19748;BME280;10032;51.386;12.516;2022-11-23T08:36:56;99009.06;;;5.02;100.00
19748;BME280;10032;51.386;12.516;2022-11-23T08:39:21;99003.78;;;5.07;100.00
19748;BME280;10032;51.386;12.516;2022-11-23T08:41:47;99004.94;;;5.11;100.00
19748;BME280;10032;51.386;12.516;2022-11-23T08:44:12;99009.09;;;5.19;100.00
19748;BME280;10032;51.386;12.516;2022-11-23T08:46:38;99008.88;;;5.20;100.00
19748;BME280;10032;51.386;12.516;2022-11-23T08:49:04;99013.03;;;5.28;100.00
19748;BME280;10032;51.386;12.516;2022-11-23T08:51:30;99006.41;;;5.35;100.00
19748;BME280;10032;51.386;12.516;2022-11-23T08:53:56;99010.09;;;5.46;100.00
19748;BME280;10032;51.386;12.516;2022-11-23T08:56:21;99005.94;;;5.55;100.00
19748;BME280;10032;51.386;12.516;2022-11-23T08:58:47;98996.91;;;5.61;100.00
19748;BME280;10032;51.386;12.516;2022-11-23T09:01:14;99008.03;;;5.69;100.00
19748;BME280;10032;51.386;12.516;2022-11-23T09:03:40;99011.34;;;5.76;100.00
19748;BME280;10032;51.386;12.516;2022-11-23T09:06:06;99015.06;;;5.87;100.00
19748;BME280;10032;51.386;12.516;2022-11-23T09:08:32;99015.19;;;5.97;100.00
19748;BME280;10032;51.386;12.516;2022-11-23T09:10:59;99016.69;;;6.09;100.00
19748;BME280;10032;51.386;12.516;2022-11-23T09:13:25;99033.47;;;6.16;100.00
19748;BME280;10032;51.386;12.516;2022-11-23T09:15:51;99022.25;;;6.24;100.00
19748;BME280;10032;51.386;12.516;2022-11-23T09:18:20;99024.53;;;6.32;100.00
19748;BME280;10032;51.386;12.516;2022-11-23T09:20:46;99029.47;;;6.40;100.00
19748;BME280;10032;51.386;12.516;2022-11-23T09:23:11;99022.34;;;6.51;100.00
19748;BME280;10032;51.386;12.516;2022-11-23T09:25:36;99026.47;;;6.58;100.00
19748;BME280;10032;51.386;12.516;2022-11-23T09:28:02;99020.16;;;6.69;100.00
19748;BME280;10032;51.386;12.516;2022-11-23T09:30:28;99018.13;;;6.81;100.00
19748;BME280;10032;51.386;12.516;2022-11-23T09:32:55;99015.03;;;6.94;100.00
19748;BME280;10032;51.386;12.516;2022-11-23T09:35:21;99016.44;;;7.02;100.00
19748;BME280;10032;51.386;12.516;2022-11-23T09:37:46;99013.50;;;7.03;100.00
19748;BME280;10032;51.386;12.516;2022-11-23T09:40:15;99001.41;;;7.06;100.00
19748;BME280;10032;51.386;12.516;2022-11-23T09:45:52;99004.75;;;7.18;100.00
19748;BME280;10032;51.386;12.516;2022-11-23T09:51:00;99014.38;;;7.40;100.00
19748;BME280;10032;51.386;12.516;2022-11-23T09:55:58;98993.00;;;7.65;100.00
19748;BME280;10032;51.386;12.516;2022-11-23T09:58:30;98997.09;;;7.73;100.00
19748;BME280;10032;51.386;12.516;2022-11-23T10:01:03;99003.91;;;7.80;100.00
19748;BME280;10032;51.386;12.516;2022-11-23T10:03:34;98997.97;;;7.83;100.00
19748;BME280;10032;51.386;12.516;2022-11-23T10:06:05;99000.69;;;7.88;100.00
19748;BME280;10032;51.386;12.516;2022-11-23T10:13:53;98999.06;;;8.24;100.00
19748;BME280;10032;51.386;12.516;2022-11-23T10:19:23;99003.47;;;8.40;100.00
19748;BME280;10032;51.386;12.516;2022-11-23T10:24:27;99002.16;;;8.52;100.00
19748;BME280;10032;51.386;12.516;2022-11-23T10:26:55;98996.28;;;8.70;100.00
19748;BME280;10032;51.386;12.516;2022-11-23T10:29:32;99000.38;;;8.83;100.00
19748;BME280;10032;51.386;12.516;2022-11-23T10:31:59;98989.84;;;8.91;100.00
19748;BME280;10032;51.386;12.516;2022-11-23T10:36:59;98990.38;;;8.98;100.00
19748;BME280;10032;51.386;12.516;2022-11-23T10:39:26;98981.22;;;9.09;100.00
19748;BME280;10032;51.386;12.516;2022-11-23T10:41:53;98985.28;;;9.22;100.00
19748;BME280;10032;51.386;12.516;2022-11-23T10:44:32;98985.28;;;9.32;100.00
19748;BME280;10032;51.386;12.516;2022-11-23T10:46:58;98983.41;;;9.47;100.00
19748;BME280;10032;51.386;12.516;2022-11-23T10:49:29;98980.16;;;9.55;100.00
19748;BME280;10032;51.386;12.516;2022-11-23T10:52:24;98981.25;;;9.64;100.00
19748;BME280;10032;51.386;12.516;2022-11-23T10:54:54;98976.88;;;9.73;100.00
19748;BME280;10032;51.386;12.516;2022-11-23T11:00:01;98972.53;;;9.87;100.00
19748;BME280;10032;51.386;12.516;2022-11-23T11:02:27;98973.06;;;9.94;100.00
19748;BME280;10032;51.386;12.516;2022-11-23T11:07:59;98970.34;;;9.99;100.00
19748;BME280;10032;51.386;12.516;2022-11-23T11:10:36;98973.06;;;10.09;100.00
19748;BME280;10032;51.386;12.516;2022-11-23T11:13:03;98966.53;;;10.20;100.00
19748;BME280;10032;51.386;12.516;2022-11-23T11:15:53;98976.78;;;10.33;100.00
19748;BME280;10032;51.386;12.516;2022-11-23T11:18:19;98974.56;;;10.40;100.00
19748;BME280;10032;51.386;12.516;2022-11-23T11:20:44;98971.84;;;10.45;100.00
19748;BME280;10032;51.386;12.516;2022-11-23T11:23:18;98977.28;;;10.35;100.00
19748;BME280;10032;51.386;12.516;2022-11-23T11:25:46;98977.88;;;10.27;100.00
19748;BME280;10032;51.386;12.516;2022-11-23T11:28:32;98972.16;;;10.29;100.00
19748;BME280;10032;51.386;12.516;2022-11-23T11:36:15;98962.66;;;10.41;100.00
19748;BME280;10032;51.386;12.516;2022-11-23T11:38:41;98965.34;;;10.46;100.00
19748;BME280;10032;51.386;12.516;2022-11-23T11:41:12;98969.13;;;10.45;100.00
19748;BME280;10032;51.386;12.516;2022-11-23T11:43:43;98963.72;;;10.45;100.00
19748;BME280;10032;51.386;12.516;2022-11-23T11:46:15;98966.41;;;10.50;100.00
19748;BME280;10032;51.386;12.516;2022-11-23T11:49:35;98960.69;;;10.57;100.00
19748;BME280;10032;51.386;12.516;2022-11-23T11:52:10;98958.75;;;10.62;100.00
19748;BME280;10032;51.386;12.516;2022-11-23T11:54:46;98966.84;;;10.67;100.00
19748;BME280;10032;51.386;12.516;2022-11-23T11:57:21;98966.59;;;10.69;100.00
19748;BME280;10032;51.386;12.516;2022-11-23T11:59:50;98967.94;;;10.71;100.00
19748;BME280;10032;51.386;12.516;2022-11-23T12:05:24;98967.09;;;10.71;100.00
19748;BME280;10032;51.386;12.516;2022-11-23T12:10:32;98966.84;;;10.67;100.00
19748;BME280;10032;51.386;12.516;2022-11-23T12:13:01;98966.34;;;10.65;100.00
19748;BME280;10032;51.386;12.516;2022-11-23T12:16:14;98963.63;;;10.65;100.00
19748;BME280;10032;51.386;12.516;2022-11-23T12:22:09;98970.44;;;10.58;100.00
19748;BME280;10032;51.386;12.516;2022-11-23T12:30:28;98968.06;;;10.41;100.00
19748;BME280;10032;51.386;12.516;2022-11-23T12:33:15;98968.06;;;10.41;100.00
19748;BME280;10032;51.386;12.516;2022-11-23T12:35:54;98964.84;;;10.39;100.00
19748;BME280;10032;51.386;12.516;2022-11-23T12:38:38;98969.72;;;10.42;100.00
19748;BME280;10032;51.386;12.516;2022-11-23T12:41:50;98963.72;;;10.45;100.00
19748;BME280;10032;51.386;12.516;2022-11-23T12:44:57;98967.50;;;10.49;100.00
19748;BME280;10032;51.386;12.516;2022-11-23T12:50:29;98965.88;;;10.53;100.00
19748;BME280;10032;51.386;12.516;2022-11-23T12:55:34;98973.16;;;10.58;100.00
19748;BME280;10032;51.386;12.516;2022-11-23T12:58:27;98975.03;;;10.57;100.00
19748;BME280;10032;51.386;12.516;2022-11-23T13:01:11;98970.47;;;10.53;100.00
19748;BME280;10032;51.386;12.516;2022-11-23T13:04:25;98971.00;;;10.50;100.00
19748;BME280;10032;51.386;12.516;2022-11-23T13:15:52;98964.59;;;10.36;100.00
19748;BME280;10032;51.386;12.516;2022-11-23T13:19:15;98969.47;;;10.29;100.00
19748;BME280;10032;51.386;12.516;2022-11-23T13:23:48;98963.81;;;10.15;100.00
19748;BME280;10032;51.386;12.516;2022-11-23T13:26:22;98966.53;;;10.10;100.00
19748;BME280;10032;51.386;12.516;2022-11-23T13:28:50;98969.81;;;10.07;100.00
19748;BME280;10032;51.386;12.516;2022-11-23T13:31:36;98962.78;;;10.01;100.00
19748;BME280;10032;51.386;12.516;2022-11-23T13:34:41;98969.81;;;9.97;100.00
19748;BME280;10032;51.386;12.516;2022-11-23T13:36:59;98964.94;;;9.94;100.00
19748;BME280;10032;51.386;12.516;2022-11-23T13:40:19;98969.00;;;9.92;100.00
19748;BME280;10032;51.386;12.516;2022-11-23T13:42:35;98965.50;;;9.91;100.00
19748;BME280;10032;51.386;12.516;2022-11-23T13:45:22;98970.34;;;9.89;100.00
19748;BME280;10032;51.386;12.516;2022-11-23T13:50:54;98959.59;;;9.84;100.00
19748;BME280;10032;51.386;12.516;2022-11-23T13:53:45;98956.59;;;9.76;100.00
19748;BME280;10032;51.386;12.516;2022-11-23T13:56:40;98958.50;;;9.75;100.00
19748;BME280;10032;51.386;12.516;2022-11-23T14:04:38;98960.41;;;9.70;100.00
19748;BME280;10032;51.386;12.516;2022-11-23T14:07:04;98957.16;;;9.68;100.00
19748;BME280;10032;51.386;12.516;2022-11-23T14:09:44;98956.91;;;9.64;100.00
19748;BME280;10032;51.386;12.516;2022-11-23T14:28:49;98960.97;;;9.27;100.00
19748;BME280;10032;51.386;12.516;2022-11-23T14:31:45;98962.06;;;9.21;100.00
19748;BME280;10032;51.386;12.516;2022-11-23T14:37:07;98963.94;;;9.05;100.00